sensor_id;sensor_type;location;lat;lon;timestamp;P1;durP1;ratioP1;P2;durP2;ratioP2
66721;SDS011;53633;49.932;10.884;2023-08-06T00:00:18;6.10;;;2.10;;
66721;SDS011;53633;49.932;10.884;2023-08-06T00:02:45;5.30;;;2.22;;
66721;SDS011;53633;49.932;10.884;2023-08-06T00:05:13;5.20;;;2.30;;
66721;SDS011;53633;49.932;10.884;2023-08-06T00:07:40;5.07;;;2.10;;
66721;SDS011;53633;49.932;10.884;2023-08-06T00:10:07;4.88;;;2.40;;
66721;SDS011;53633;49.932;10.884;2023-08-06T00:12:34;6.13;;;2.00;;
66721;SDS011;53633;49.932;10.884;2023-08-06T00:15:01;5.30;;;2.03;;
66721;SDS011;53633;49.932;10.884;2023-08-06T00:17:27;6.05;;;2.20;;
66721;SDS011;53633;49.932;10.884;2023-08-06T00:19:54;6.47;;;2.22;;
66721;SDS011;53633;49.932;10.884;2023-08-06T00:22:23;5.43;;;2.17;;
66721;SDS011;53633;49.932;10.884;2023-08-06T00:24:50;6.13;;;2.10;;
66721;SDS011;53633;49.932;10.884;2023-08-06T00:27:17;4.95;;;2.30;;
66721;SDS011;53633;49.932;10.884;2023-08-06T00:29:43;4.90;;;2.22;;
66721;SDS011;53633;49.932;10.884;2023-08-06T00:32:10;4.90;;;2.08;;
66721;SDS011;53633;49.932;10.884;2023-08-06T00:34:37;4.93;;;2.13;;
66721;SDS011;53633;49.932;10.884;2023-08-06T00:37:04;5.50;;;2.30;;
66721;SDS011;53633;49.932;10.884;2023-08-06T00:39:32;6.40;;;2.45;;
66721;SDS011;53633;49.932;10.884;2023-08-06T00:41:59;7.00;;;2.15;;
66721;SDS011;53633;49.932;10.884;2023-08-06T00:44:26;8.32;;;1.90;;
66721;SDS011;53633;49.932;10.884;2023-08-06T00:46:52;6.03;;;2.28;;
66721;SDS011;53633;49.932;10.884;2023-08-06T00:49:19;7.30;;;1.73;;
66721;SDS011;53633;49.932;10.884;2023-08-06T00:51:46;5.05;;;2.00;;
66721;SDS011;53633;49.932;10.884;2023-08-06T00:54:13;5.60;;;1.98;;
66721;SDS011;53633;49.932;10.884;2023-08-06T00:56:42;5.15;;;2.00;;
66721;SDS011;53633;49.932;10.884;2023-08-06T00:59:09;4.88;;;2.05;;
66721;SDS011;53633;49.932;10.884;2023-08-06T01:01:38;4.20;;;2.03;;
66721;SDS011;53633;49.932;10.884;2023-08-06T01:04:05;4.75;;;2.00;;
66721;SDS011;53633;49.932;10.884;2023-08-06T01:06:33;6.40;;;2.30;;
66721;SDS011;53633;49.932;10.884;2023-08-06T01:09:07;3.90;;;1.70;;
66721;SDS011;53633;49.932;10.884;2023-08-06T01:11:59;6.47;;;2.10;;
66721;SDS011;53633;49.932;10.884;2023-08-06T01:14:33;5.23;;;2.13;;
66721;SDS011;53633;49.932;10.884;2023-08-06T01:17:12;5.35;;;2.15;;
66721;SDS011;53633;49.932;10.884;2023-08-06T01:19:39;5.20;;;2.28;;
66721;SDS011;53633;49.932;10.884;2023-08-06T01:22:07;5.53;;;1.98;;
66721;SDS011;53633;49.932;10.884;2023-08-06T01:24:34;5.38;;;2.28;;
66721;SDS011;53633;49.932;10.884;2023-08-06T01:27:03;4.90;;;2.20;;
66721;SDS011;53633;49.932;10.884;2023-08-06T01:29:47;6.20;;;2.47;;
66721;SDS011;53633;49.932;10.884;2023-08-06T01:32:19;5.72;;;2.30;;
66721;SDS011;53633;49.932;10.884;2023-08-06T01:34:47;7.60;;;2.22;;
66721;SDS011;53633;49.932;10.884;2023-08-06T01:37:16;5.53;;;2.13;;
66721;SDS011;53633;49.932;10.884;2023-08-06T01:39:43;6.30;;;2.17;;
66721;SDS011;53633;49.932;10.884;2023-08-06T01:42:09;4.20;;;2.10;;
66721;SDS011;53633;49.932;10.884;2023-08-06T01:44:36;5.18;;;2.20;;
66721;SDS011;53633;49.932;10.884;2023-08-06T01:47:03;5.13;;;2.47;;
66721;SDS011;53633;49.932;10.884;2023-08-06T01:49:30;5.43;;;2.47;;
66721;SDS011;53633;49.932;10.884;2023-08-06T01:51:57;6.27;;;2.23;;
66721;SDS011;53633;49.932;10.884;2023-08-06T01:54:25;5.55;;;2.42;;
66721;SDS011;53633;49.932;10.884;2023-08-06T01:56:52;4.97;;;2.00;;
66721;SDS011;53633;49.932;10.884;2023-08-06T01:59:18;5.85;;;2.63;;
66721;SDS011;53633;49.932;10.884;2023-08-06T02:01:45;7.45;;;2.33;;
66721;SDS011;53633;49.932;10.884;2023-08-06T02:04:12;5.80;;;2.23;;
66721;SDS011;53633;49.932;10.884;2023-08-06T02:06:39;5.60;;;2.03;;
66721;SDS011;53633;49.932;10.884;2023-08-06T02:09:06;6.95;;;2.20;;
66721;SDS011;53633;49.932;10.884;2023-08-06T02:11:34;5.70;;;2.55;;
66721;SDS011;53633;49.932;10.884;2023-08-06T02:14:00;5.97;;;2.95;;
66721;SDS011;53633;49.932;10.884;2023-08-06T02:16:27;5.07;;;2.33;;
66721;SDS011;53633;49.932;10.884;2023-08-06T02:18:54;5.88;;;2.75;;
66721;SDS011;53633;49.932;10.884;2023-08-06T02:21:21;5.47;;;2.20;;
66721;SDS011;53633;49.932;10.884;2023-08-06T02:23:47;7.88;;;2.47;;
66721;SDS011;53633;49.932;10.884;2023-08-06T02:26:14;5.65;;;2.60;;
66721;SDS011;53633;49.932;10.884;2023-08-06T02:28:42;6.17;;;2.60;;
66721;SDS011;53633;49.932;10.884;2023-08-06T02:31:09;8.50;;;2.50;;
66721;SDS011;53633;49.932;10.884;2023-08-06T02:33:36;5.10;;;2.30;;
66721;SDS011;53633;49.932;10.884;2023-08-06T02:36:03;4.65;;;2.30;;
66721;SDS011;53633;49.932;10.884;2023-08-06T02:38:30;5.50;;;1.92;;
66721;SDS011;53633;49.932;10.884;2023-08-06T02:40:57;5.40;;;2.00;;
66721;SDS011;53633;49.932;10.884;2023-08-06T02:43:24;5.68;;;2.20;;
66721;SDS011;53633;49.932;10.884;2023-08-06T02:45:56;5.95;;;1.70;;
66721;SDS011;53633;49.932;10.884;2023-08-06T02:48:23;5.80;;;2.10;;
66721;SDS011;53633;49.932;10.884;2023-08-06T02:50:50;6.28;;;2.10;;
66721;SDS011;53633;49.932;10.884;2023-08-06T02:53:16;7.17;;;2.40;;
66721;SDS011;53633;49.932;10.884;2023-08-06T02:55:45;6.25;;;2.67;;
66721;SDS011;53633;49.932;10.884;2023-08-06T02:58:12;7.72;;;3.35;;
66721;SDS011;53633;49.932;10.884;2023-08-06T03:00:39;5.47;;;2.38;;
66721;SDS011;53633;49.932;10.884;2023-08-06T03:03:07;6.22;;;2.53;;
66721;SDS011;53633;49.932;10.884;2023-08-06T03:05:33;6.83;;;2.93;;
66721;SDS011;53633;49.932;10.884;2023-08-06T03:08:00;6.25;;;2.83;;
66721;SDS011;53633;49.932;10.884;2023-08-06T03:10:27;6.47;;;2.90;;
66721;SDS011;53633;49.932;10.884;2023-08-06T03:12:54;5.90;;;2.60;;
66721;SDS011;53633;49.932;10.884;2023-08-06T03:15:20;6.30;;;2.90;;
66721;SDS011;53633;49.932;10.884;2023-08-06T03:17:47;6.27;;;2.83;;
66721;SDS011;53633;49.932;10.884;2023-08-06T03:20:16;6.90;;;2.83;;
66721;SDS011;53633;49.932;10.884;2023-08-06T03:22:42;6.07;;;2.50;;
66721;SDS011;53633;49.932;10.884;2023-08-06T03:25:09;6.68;;;3.00;;
66721;SDS011;53633;49.932;10.884;2023-08-06T03:27:36;7.35;;;2.95;;
66721;SDS011;53633;49.932;10.884;2023-08-06T03:30:03;7.80;;;2.40;;
66721;SDS011;53633;49.932;10.884;2023-08-06T03:32:30;7.40;;;2.97;;
66721;SDS011;53633;49.932;10.884;2023-08-06T03:34:57;7.05;;;2.72;;
66721;SDS011;53633;49.932;10.884;2023-08-06T03:37:25;7.70;;;3.15;;
66721;SDS011;53633;49.932;10.884;2023-08-06T03:39:51;5.20;;;2.47;;
66721;SDS011;53633;49.932;10.884;2023-08-06T03:42:18;7.67;;;3.20;;
66721;SDS011;53633;49.932;10.884;2023-08-06T03:44:45;7.25;;;3.05;;
66721;SDS011;53633;49.932;10.884;2023-08-06T03:47:11;7.57;;;2.90;;
66721;SDS011;53633;49.932;10.884;2023-08-06T03:49:38;7.40;;;3.05;;
66721;SDS011;53633;49.932;10.884;2023-08-06T03:52:05;6.10;;;3.05;;
66721;SDS011;53633;49.932;10.884;2023-08-06T03:54:34;6.50;;;3.07;;
66721;SDS011;53633;49.932;10.884;2023-08-06T03:57:00;6.68;;;3.25;;
66721;SDS011;53633;49.932;10.884;2023-08-06T03:59:27;7.18;;;3.30;;
66721;SDS011;53633;49.932;10.884;2023-08-06T04:01:54;7.28;;;3.08;;
66721;SDS011;53633;49.932;10.884;2023-08-06T04:04:20;6.15;;;3.03;;
66721;SDS011;53633;49.932;10.884;2023-08-06T04:06:47;8.63;;;2.83;;
66721;SDS011;53633;49.932;10.884;2023-08-06T04:09:14;6.32;;;2.67;;
66721;SDS011;53633;49.932;10.884;2023-08-06T04:11:42;6.55;;;2.80;;
66721;SDS011;53633;49.932;10.884;2023-08-06T04:14:09;5.50;;;2.70;;
66721;SDS011;53633;49.932;10.884;2023-08-06T04:16:35;6.22;;;2.38;;
66721;SDS011;53633;49.932;10.884;2023-08-06T04:19:02;6.60;;;2.70;;
66721;SDS011;53633;49.932;10.884;2023-08-06T04:21:29;5.35;;;2.47;;
66721;SDS011;53633;49.932;10.884;2023-08-06T04:23:56;6.55;;;2.25;;
66721;SDS011;53633;49.932;10.884;2023-08-06T04:26:22;5.53;;;2.42;;
66721;SDS011;53633;49.932;10.884;2023-08-06T04:28:51;6.00;;;2.75;;
66721;SDS011;53633;49.932;10.884;2023-08-06T04:31:18;5.10;;;2.20;;
66721;SDS011;53633;49.932;10.884;2023-08-06T04:33:44;11.05;;;2.30;;
66721;SDS011;53633;49.932;10.884;2023-08-06T04:36:11;5.53;;;2.28;;
66721;SDS011;53633;49.932;10.884;2023-08-06T04:38:38;7.15;;;2.20;;
66721;SDS011;53633;49.932;10.884;2023-08-06T04:41:05;6.22;;;1.98;;
66721;SDS011;53633;49.932;10.884;2023-08-06T04:43:31;4.50;;;2.13;;
66721;SDS011;53633;49.932;10.884;2023-08-06T04:45:59;6.00;;;2.30;;
66721;SDS011;53633;49.932;10.884;2023-08-06T04:48:26;7.03;;;2.17;;
66721;SDS011;53633;49.932;10.884;2023-08-06T04:50:53;4.93;;;2.00;;
66721;SDS011;53633;49.932;10.884;2023-08-06T04:53:20;5.57;;;2.20;;
66721;SDS011;53633;49.932;10.884;2023-08-06T04:55:47;5.93;;;2.80;;
66721;SDS011;53633;49.932;10.884;2023-08-06T04:58:13;5.78;;;2.42;;
66721;SDS011;53633;49.932;10.884;2023-08-06T05:00:40;5.20;;;1.90;;
66721;SDS011;53633;49.932;10.884;2023-08-06T05:03:08;5.45;;;2.40;;
66721;SDS011;53633;49.932;10.884;2023-08-06T05:05:35;5.97;;;2.30;;
66721;SDS011;53633;49.932;10.884;2023-08-06T05:08:02;8.33;;;3.03;;
66721;SDS011;53633;49.932;10.884;2023-08-06T05:10:28;5.82;;;2.40;;
66721;SDS011;53633;49.932;10.884;2023-08-06T05:12:55;6.53;;;2.13;;
66721;SDS011;53633;49.932;10.884;2023-08-06T05:15:22;5.50;;;2.20;;
66721;SDS011;53633;49.932;10.884;2023-08-06T05:17:48;7.20;;;2.05;;
66721;SDS011;53633;49.932;10.884;2023-08-06T05:20:17;6.23;;;1.80;;
66721;SDS011;53633;49.932;10.884;2023-08-06T05:22:43;5.47;;;1.90;;
66721;SDS011;53633;49.932;10.884;2023-08-06T05:25:12;6.43;;;1.70;;
66721;SDS011;53633;49.932;10.884;2023-08-06T05:27:39;5.18;;;2.00;;
66721;SDS011;53633;49.932;10.884;2023-08-06T05:30:06;5.60;;;2.00;;
66721;SDS011;53633;49.932;10.884;2023-08-06T05:32:34;5.43;;;2.30;;
66721;SDS011;53633;49.932;10.884;2023-08-06T05:35:00;4.45;;;1.58;;
66721;SDS011;53633;49.932;10.884;2023-08-06T05:37:29;4.95;;;1.75;;
66721;SDS011;53633;49.932;10.884;2023-08-06T05:39:55;5.97;;;2.20;;
66721;SDS011;53633;49.932;10.884;2023-08-06T05:42:22;6.00;;;2.10;;
66721;SDS011;53633;49.932;10.884;2023-08-06T05:44:49;5.40;;;2.23;;
66721;SDS011;53633;49.932;10.884;2023-08-06T05:47:15;7.18;;;2.00;;
66721;SDS011;53633;49.932;10.884;2023-08-06T05:49:42;5.55;;;1.95;;
66721;SDS011;53633;49.932;10.884;2023-08-06T05:52:09;5.35;;;1.98;;
66721;SDS011;53633;49.932;10.884;2023-08-06T05:54:37;5.65;;;1.90;;
66721;SDS011;53633;49.932;10.884;2023-08-06T05:57:04;9.67;;;1.87;;
66721;SDS011;53633;49.932;10.884;2023-08-06T05:59:32;4.07;;;1.50;;
66721;SDS011;53633;49.932;10.884;2023-08-06T06:01:58;5.75;;;1.75;;
66721;SDS011;53633;49.932;10.884;2023-08-06T06:04:25;4.57;;;1.80;;
66721;SDS011;53633;49.932;10.884;2023-08-06T06:06:52;5.68;;;1.73;;
66721;SDS011;53633;49.932;10.884;2023-08-06T06:09:19;5.20;;;1.70;;
66721;SDS011;53633;49.932;10.884;2023-08-06T06:11:47;4.38;;;1.80;;
66721;SDS011;53633;49.932;10.884;2023-08-06T06:14:14;4.97;;;1.95;;
66721;SDS011;53633;49.932;10.884;2023-08-06T06:16:40;6.95;;;1.63;;
66721;SDS011;53633;49.932;10.884;2023-08-06T06:19:07;5.55;;;2.20;;
66721;SDS011;53633;49.932;10.884;2023-08-06T06:21:34;5.53;;;1.80;;
66721;SDS011;53633;49.932;10.884;2023-08-06T06:24:01;4.45;;;1.88;;
66721;SDS011;53633;49.932;10.884;2023-08-06T06:26:41;5.40;;;2.00;;
66721;SDS011;53633;49.932;10.884;2023-08-06T06:29:09;4.65;;;2.00;;
66721;SDS011;53633;49.932;10.884;2023-08-06T06:31:36;4.85;;;1.80;;
66721;SDS011;53633;49.932;10.884;2023-08-06T06:34:03;4.10;;;1.70;;
66721;SDS011;53633;49.932;10.884;2023-08-06T06:36:29;4.35;;;1.70;;
66721;SDS011;53633;49.932;10.884;2023-08-06T06:38:56;5.22;;;1.55;;
66721;SDS011;53633;49.932;10.884;2023-08-06T06:41:23;5.10;;;2.20;;
66721;SDS011;53633;49.932;10.884;2023-08-06T06:43:49;6.22;;;1.92;;
66721;SDS011;53633;49.932;10.884;2023-08-06T06:46:18;4.90;;;1.90;;
66721;SDS011;53633;49.932;10.884;2023-08-06T06:48:44;5.43;;;1.65;;
66721;SDS011;53633;49.932;10.884;2023-08-06T06:51:11;4.30;;;1.90;;
66721;SDS011;53633;49.932;10.884;2023-08-06T06:53:38;4.68;;;1.52;;
66721;SDS011;53633;49.932;10.884;2023-08-06T06:56:05;4.28;;;1.58;;
66721;SDS011;53633;49.932;10.884;2023-08-06T06:58:31;4.53;;;1.60;;
66721;SDS011;53633;49.932;10.884;2023-08-06T07:00:59;5.90;;;1.70;;
66721;SDS011;53633;49.932;10.884;2023-08-06T07:03:27;3.90;;;1.58;;
66721;SDS011;53633;49.932;10.884;2023-08-06T07:05:56;4.20;;;1.80;;
66721;SDS011;53633;49.932;10.884;2023-08-06T07:08:23;4.70;;;1.80;;
66721;SDS011;53633;49.932;10.884;2023-08-06T07:10:50;6.90;;;1.83;;
66721;SDS011;53633;49.932;10.884;2023-08-06T07:13:25;4.57;;;1.80;;
66721;SDS011;53633;49.932;10.884;2023-08-06T07:15:52;4.13;;;1.13;;
66721;SDS011;53633;49.932;10.884;2023-08-06T07:18:18;5.47;;;1.60;;
66721;SDS011;53633;49.932;10.884;2023-08-06T07:20:49;4.13;;;1.23;;
66721;SDS011;53633;49.932;10.884;2023-08-06T07:23:15;4.73;;;1.20;;
66721;SDS011;53633;49.932;10.884;2023-08-06T07:25:42;5.63;;;1.88;;
66721;SDS011;53633;49.932;10.884;2023-08-06T07:28:09;4.40;;;1.20;;
66721;SDS011;53633;49.932;10.884;2023-08-06T07:30:38;4.63;;;1.67;;
66721;SDS011;53633;49.932;10.884;2023-08-06T07:33:04;6.30;;;1.67;;
66721;SDS011;53633;49.932;10.884;2023-08-06T07:35:31;4.30;;;1.50;;
66721;SDS011;53633;49.932;10.884;2023-08-06T07:38:00;3.65;;;1.52;;
66721;SDS011;53633;49.932;10.884;2023-08-06T07:40:27;5.90;;;1.88;;
66721;SDS011;53633;49.932;10.884;2023-08-06T07:42:53;5.43;;;1.60;;
66721;SDS011;53633;49.932;10.884;2023-08-06T07:45:20;4.82;;;1.60;;
66721;SDS011;53633;49.932;10.884;2023-08-06T07:47:47;6.23;;;1.60;;
66721;SDS011;53633;49.932;10.884;2023-08-06T07:50:14;4.35;;;1.30;;
66721;SDS011;53633;49.932;10.884;2023-08-06T07:52:41;4.45;;;1.65;;
66721;SDS011;53633;49.932;10.884;2023-08-06T07:55:09;3.92;;;1.55;;
66721;SDS011;53633;49.932;10.884;2023-08-06T07:57:35;3.95;;;1.45;;
66721;SDS011;53633;49.932;10.884;2023-08-06T08:00:02;4.40;;;1.60;;
66721;SDS011;53633;49.932;10.884;2023-08-06T08:02:30;5.20;;;1.50;;
66721;SDS011;53633;49.932;10.884;2023-08-06T08:04:57;4.78;;;1.48;;
66721;SDS011;53633;49.932;10.884;2023-08-06T08:07:24;5.00;;;1.65;;
66721;SDS011;53633;49.932;10.884;2023-08-06T08:09:50;5.07;;;1.70;;
66721;SDS011;53633;49.932;10.884;2023-08-06T08:12:18;5.83;;;1.80;;
66721;SDS011;53633;49.932;10.884;2023-08-06T08:14:45;4.80;;;1.70;;
66721;SDS011;53633;49.932;10.884;2023-08-06T08:17:12;5.53;;;1.70;;
66721;SDS011;53633;49.932;10.884;2023-08-06T08:19:39;4.55;;;1.35;;
66721;SDS011;53633;49.932;10.884;2023-08-06T08:22:06;4.45;;;1.80;;
66721;SDS011;53633;49.932;10.884;2023-08-06T08:24:32;4.00;;;1.30;;
66721;SDS011;53633;49.932;10.884;2023-08-06T08:26:59;4.57;;;1.20;;
66721;SDS011;53633;49.932;10.884;2023-08-06T08:29:27;3.67;;;1.00;;
66721;SDS011;53633;49.932;10.884;2023-08-06T08:31:54;3.38;;;0.90;;
66721;SDS011;53633;49.932;10.884;2023-08-06T08:34:21;2.58;;;0.90;;
66721;SDS011;53633;49.932;10.884;2023-08-06T08:36:48;4.07;;;1.00;;
66721;SDS011;53633;49.932;10.884;2023-08-06T08:39:15;2.90;;;1.00;;
66721;SDS011;53633;49.932;10.884;2023-08-06T08:41:41;3.65;;;0.98;;
66721;SDS011;53633;49.932;10.884;2023-08-06T08:44:09;2.97;;;0.88;;
66721;SDS011;53633;49.932;10.884;2023-08-06T08:46:38;3.55;;;1.23;;
66721;SDS011;53633;49.932;10.884;2023-08-06T08:49:06;2.83;;;0.63;;
66721;SDS011;53633;49.932;10.884;2023-08-06T08:51:33;3.53;;;0.82;;
66721;SDS011;53633;49.932;10.884;2023-08-06T08:54:01;3.63;;;0.88;;
66721;SDS011;53633;49.932;10.884;2023-08-06T08:56:29;3.15;;;0.90;;
66721;SDS011;53633;49.932;10.884;2023-08-06T08:58:56;2.55;;;0.80;;
66721;SDS011;53633;49.932;10.884;2023-08-06T09:01:23;2.20;;;0.63;;
66721;SDS011;53633;49.932;10.884;2023-08-06T09:03:52;2.05;;;0.70;;
66721;SDS011;53633;49.932;10.884;2023-08-06T09:06:21;2.20;;;0.63;;
66721;SDS011;53633;49.932;10.884;2023-08-06T09:08:54;3.22;;;0.70;;
66721;SDS011;53633;49.932;10.884;2023-08-06T09:11:27;4.13;;;0.68;;
66721;SDS011;53633;49.932;10.884;2023-08-06T09:13:56;1.73;;;0.60;;
66721;SDS011;53633;49.932;10.884;2023-08-06T09:16:22;2.35;;;0.70;;
66721;SDS011;53633;49.932;10.884;2023-08-06T09:18:50;1.35;;;0.50;;
66721;SDS011;53633;49.932;10.884;2023-08-06T09:21:18;1.85;;;0.60;;
66721;SDS011;53633;49.932;10.884;2023-08-06T09:23:45;2.05;;;0.60;;
66721;SDS011;53633;49.932;10.884;2023-08-06T09:26:11;2.37;;;0.70;;
66721;SDS011;53633;49.932;10.884;2023-08-06T09:28:41;2.20;;;0.65;;
66721;SDS011;53633;49.932;10.884;2023-08-06T09:31:08;1.77;;;0.50;;
66721;SDS011;53633;49.932;10.884;2023-08-06T09:33:36;2.42;;;0.70;;
66721;SDS011;53633;49.932;10.884;2023-08-06T09:36:10;2.42;;;0.80;;
66721;SDS011;53633;49.932;10.884;2023-08-06T09:38:39;2.60;;;0.60;;
66721;SDS011;53633;49.932;10.884;2023-08-06T09:41:06;2.40;;;0.80;;
66721;SDS011;53633;49.932;10.884;2023-08-06T09:43:39;1.77;;;0.50;;
66721;SDS011;53633;49.932;10.884;2023-08-06T09:46:10;2.45;;;0.60;;
66721;SDS011;53633;49.932;10.884;2023-08-06T09:48:37;1.90;;;0.80;;
66721;SDS011;53633;49.932;10.884;2023-08-06T09:51:04;3.27;;;0.90;;
66721;SDS011;53633;49.932;10.884;2023-08-06T09:53:34;2.33;;;0.90;;
66721;SDS011;53633;49.932;10.884;2023-08-06T09:56:04;4.22;;;0.60;;
66721;SDS011;53633;49.932;10.884;2023-08-06T09:58:32;2.65;;;0.80;;
66721;SDS011;53633;49.932;10.884;2023-08-06T10:00:59;2.58;;;0.73;;
66721;SDS011;53633;49.932;10.884;2023-08-06T10:03:27;2.00;;;0.70;;
66721;SDS011;53633;49.932;10.884;2023-08-06T10:05:55;2.13;;;0.73;;
66721;SDS011;53633;49.932;10.884;2023-08-06T10:08:22;1.50;;;0.52;;
66721;SDS011;53633;49.932;10.884;2023-08-06T10:10:49;1.52;;;0.60;;
66721;SDS011;53633;49.932;10.884;2023-08-06T10:13:20;1.55;;;0.60;;
66721;SDS011;53633;49.932;10.884;2023-08-06T10:15:48;4.17;;;1.00;;
66721;SDS011;53633;49.932;10.884;2023-08-06T10:18:15;1.20;;;0.50;;
66721;SDS011;53633;49.932;10.884;2023-08-06T10:20:43;1.55;;;0.40;;
66721;SDS011;53633;49.932;10.884;2023-08-06T10:23:10;1.48;;;0.65;;
66721;SDS011;53633;49.932;10.884;2023-08-06T10:25:39;1.42;;;0.70;;
66721;SDS011;53633;49.932;10.884;2023-08-06T10:28:07;2.23;;;0.63;;
66721;SDS011;53633;49.932;10.884;2023-08-06T10:30:40;3.22;;;0.60;;
66721;SDS011;53633;49.932;10.884;2023-08-06T10:33:08;2.10;;;0.68;;
66721;SDS011;53633;49.932;10.884;2023-08-06T10:35:35;1.70;;;0.68;;
66721;SDS011;53633;49.932;10.884;2023-08-06T10:38:03;1.35;;;0.50;;
66721;SDS011;53633;49.932;10.884;2023-08-06T10:40:31;1.17;;;0.50;;
66721;SDS011;53633;49.932;10.884;2023-08-06T10:42:59;1.80;;;0.60;;
66721;SDS011;53633;49.932;10.884;2023-08-06T10:45:26;1.90;;;0.60;;
66721;SDS011;53633;49.932;10.884;2023-08-06T10:47:54;1.77;;;0.50;;
66721;SDS011;53633;49.932;10.884;2023-08-06T10:50:21;2.70;;;0.60;;
66721;SDS011;53633;49.932;10.884;2023-08-06T10:52:48;1.60;;;0.50;;
66721;SDS011;53633;49.932;10.884;2023-08-06T10:55:22;3.03;;;0.63;;
66721;SDS011;53633;49.932;10.884;2023-08-06T10:57:49;1.52;;;0.60;;
66721;SDS011;53633;49.932;10.884;2023-08-06T11:00:16;2.15;;;0.60;;
66721;SDS011;53633;49.932;10.884;2023-08-06T11:02:43;1.73;;;0.57;;
66721;SDS011;53633;49.932;10.884;2023-08-06T11:05:11;1.63;;;0.53;;
66721;SDS011;53633;49.932;10.884;2023-08-06T11:07:38;1.30;;;0.45;;
66721;SDS011;53633;49.932;10.884;2023-08-06T11:10:06;1.30;;;0.50;;
66721;SDS011;53633;49.932;10.884;2023-08-06T11:12:34;1.23;;;0.40;;
66721;SDS011;53633;49.932;10.884;2023-08-06T11:15:01;1.63;;;0.50;;
66721;SDS011;53633;49.932;10.884;2023-08-06T11:17:30;1.97;;;0.60;;
66721;SDS011;53633;49.932;10.884;2023-08-06T11:19:58;1.30;;;0.50;;
66721;SDS011;53633;49.932;10.884;2023-08-06T11:22:27;1.08;;;0.40;;
66721;SDS011;53633;49.932;10.884;2023-08-06T11:24:54;1.25;;;0.50;;
66721;SDS011;53633;49.932;10.884;2023-08-06T11:27:21;1.00;;;0.40;;
66721;SDS011;53633;49.932;10.884;2023-08-06T11:29:48;4.13;;;0.50;;
66721;SDS011;53633;49.932;10.884;2023-08-06T11:32:15;1.63;;;0.60;;
66721;SDS011;53633;49.932;10.884;2023-08-06T11:34:43;1.30;;;0.50;;
66721;SDS011;53633;49.932;10.884;2023-08-06T11:37:10;1.10;;;0.40;;
66721;SDS011;53633;49.932;10.884;2023-08-06T11:39:39;1.10;;;0.50;;
66721;SDS011;53633;49.932;10.884;2023-08-06T11:42:13;1.47;;;0.50;;
66721;SDS011;53633;49.932;10.884;2023-08-06T11:44:40;1.65;;;0.40;;
66721;SDS011;53633;49.932;10.884;2023-08-06T11:47:11;1.70;;;0.30;;
66721;SDS011;53633;49.932;10.884;2023-08-06T11:49:40;1.05;;;0.40;;
66721;SDS011;53633;49.932;10.884;2023-08-06T11:52:13;2.05;;;0.50;;
66721;SDS011;53633;49.932;10.884;2023-08-06T11:54:43;1.40;;;0.60;;
66721;SDS011;53633;49.932;10.884;2023-08-06T11:57:10;2.67;;;0.43;;
66721;SDS011;53633;49.932;10.884;2023-08-06T11:59:37;1.40;;;0.50;;
66721;SDS011;53633;49.932;10.884;2023-08-06T12:02:05;1.38;;;0.47;;
66721;SDS011;53633;49.932;10.884;2023-08-06T12:07:25;1.30;;;0.40;;
66721;SDS011;53633;49.932;10.884;2023-08-06T12:09:54;1.40;;;0.50;;
66721;SDS011;53633;49.932;10.884;2023-08-06T12:12:21;1.88;;;0.63;;
66721;SDS011;53633;49.932;10.884;2023-08-06T12:14:48;1.60;;;0.50;;
66721;SDS011;53633;49.932;10.884;2023-08-06T12:17:15;1.23;;;0.50;;
66721;SDS011;53633;49.932;10.884;2023-08-06T12:19:41;1.87;;;0.40;;
66721;SDS011;53633;49.932;10.884;2023-08-06T12:22:08;1.52;;;0.68;;
66721;SDS011;53633;49.932;10.884;2023-08-06T12:24:35;1.55;;;0.50;;
66721;SDS011;53633;49.932;10.884;2023-08-06T12:27:03;1.42;;;0.60;;
66721;SDS011;53633;49.932;10.884;2023-08-06T12:29:30;1.40;;;0.60;;
66721;SDS011;53633;49.932;10.884;2023-08-06T12:31:57;1.40;;;0.40;;
66721;SDS011;53633;49.932;10.884;2023-08-06T12:34:23;1.88;;;0.60;;
66721;SDS011;53633;49.932;10.884;2023-08-06T12:36:54;1.15;;;0.50;;
66721;SDS011;53633;49.932;10.884;2023-08-06T12:39:21;2.75;;;0.60;;
66721;SDS011;53633;49.932;10.884;2023-08-06T12:41:47;2.83;;;0.50;;
66721;SDS011;53633;49.932;10.884;2023-08-06T12:44:15;1.30;;;0.50;;
66721;SDS011;53633;49.932;10.884;2023-08-06T12:46:42;2.03;;;0.55;;
66721;SDS011;53633;49.932;10.884;2023-08-06T12:49:09;2.10;;;0.40;;
66721;SDS011;53633;49.932;10.884;2023-08-06T12:51:36;1.50;;;0.60;;
66721;SDS011;53633;49.932;10.884;2023-08-06T12:54:02;1.95;;;0.50;;
66721;SDS011;53633;49.932;10.884;2023-08-06T12:56:29;2.40;;;0.50;;
66721;SDS011;53633;49.932;10.884;2023-08-06T12:58:56;1.25;;;0.40;;
66721;SDS011;53633;49.932;10.884;2023-08-06T13:01:24;1.65;;;0.50;;
66721;SDS011;53633;49.932;10.884;2023-08-06T13:03:51;1.90;;;0.80;;
66721;SDS011;53633;49.932;10.884;2023-08-06T13:06:26;1.42;;;0.40;;
66721;SDS011;53633;49.932;10.884;2023-08-06T13:08:53;1.07;;;0.40;;
66721;SDS011;53633;49.932;10.884;2023-08-06T13:11:20;1.17;;;0.40;;
66721;SDS011;53633;49.932;10.884;2023-08-06T13:13:47;1.13;;;0.40;;
66721;SDS011;53633;49.932;10.884;2023-08-06T13:16:14;2.38;;;0.57;;
66721;SDS011;53633;49.932;10.884;2023-08-06T13:18:42;1.65;;;0.65;;
66721;SDS011;53633;49.932;10.884;2023-08-06T13:21:09;1.17;;;0.40;;
66721;SDS011;53633;49.932;10.884;2023-08-06T13:23:36;1.23;;;0.40;;
66721;SDS011;53633;49.932;10.884;2023-08-06T13:26:02;3.38;;;0.90;;
66721;SDS011;53633;49.932;10.884;2023-08-06T13:28:29;7.53;;;1.13;;
66721;SDS011;53633;49.932;10.884;2023-08-06T13:30:56;4.03;;;0.88;;
66721;SDS011;53633;49.932;10.884;2023-08-06T13:33:23;2.53;;;0.90;;
66721;SDS011;53633;49.932;10.884;2023-08-06T13:35:53;1.45;;;0.50;;
66721;SDS011;53633;49.932;10.884;2023-08-06T13:38:19;1.52;;;0.50;;
66721;SDS011;53633;49.932;10.884;2023-08-06T13:40:46;1.88;;;0.50;;
66721;SDS011;53633;49.932;10.884;2023-08-06T13:43:14;1.95;;;0.50;;
66721;SDS011;53633;49.932;10.884;2023-08-06T13:45:41;1.20;;;0.50;;
66721;SDS011;53633;49.932;10.884;2023-08-06T13:48:07;1.55;;;0.50;;
66721;SDS011;53633;49.932;10.884;2023-08-06T13:50:34;3.35;;;0.50;;
66721;SDS011;53633;49.932;10.884;2023-08-06T13:53:06;1.30;;;0.40;;
66721;SDS011;53633;49.932;10.884;2023-08-06T13:55:32;2.03;;;0.40;;
66721;SDS011;53633;49.932;10.884;2023-08-06T13:57:59;1.90;;;0.50;;
66721;SDS011;53633;49.932;10.884;2023-08-06T14:00:26;1.98;;;0.40;;
66721;SDS011;53633;49.932;10.884;2023-08-06T14:02:52;1.40;;;0.40;;
66721;SDS011;53633;49.932;10.884;2023-08-06T14:05:19;1.77;;;0.50;;
66721;SDS011;53633;49.932;10.884;2023-08-06T14:07:46;1.77;;;0.47;;
66721;SDS011;53633;49.932;10.884;2023-08-06T14:10:14;3.03;;;0.40;;
66721;SDS011;53633;49.932;10.884;2023-08-06T14:12:41;1.40;;;0.40;;
66721;SDS011;53633;49.932;10.884;2023-08-06T14:15:08;2.30;;;0.40;;
66721;SDS011;53633;49.932;10.884;2023-08-06T14:17:35;2.08;;;0.47;;
66721;SDS011;53633;49.932;10.884;2023-08-06T14:20:03;1.67;;;0.50;;
66721;SDS011;53633;49.932;10.884;2023-08-06T14:22:30;1.83;;;0.47;;
66721;SDS011;53633;49.932;10.884;2023-08-06T14:24:57;4.53;;;0.60;;
66721;SDS011;53633;49.932;10.884;2023-08-06T14:27:25;1.23;;;0.30;;
66721;SDS011;53633;49.932;10.884;2023-08-06T14:29:52;1.27;;;0.40;;
66721;SDS011;53633;49.932;10.884;2023-08-06T14:32:19;1.10;;;0.40;;
66721;SDS011;53633;49.932;10.884;2023-08-06T14:34:45;3.20;;;0.50;;
66721;SDS011;53633;49.932;10.884;2023-08-06T14:37:12;1.10;;;0.40;;